createdAt,value
2018-01-13T00:00:07.293Z,1021.35
2018-01-13T00:01:07.284Z,1021.31
2018-01-13T00:02:07.293Z,1021.35
2018-01-13T00:03:07.226Z,1021.34
2018-01-13T00:04:07.191Z,1021.33
2018-01-13T00:05:07.149Z,1021.32
2018-01-13T00:06:07.240Z,1021.33
2018-01-13T00:07:07.103Z,1021.27
2018-01-13T00:08:07.132Z,1021.30
2018-01-13T00:09:07.121Z,1021.29
2018-01-13T00:10:07.019Z,1021.26
2018-01-13T00:11:06.978Z,1021.23
2018-01-13T00:12:07.014Z,1021.23
2018-01-13T00:13:06.991Z,1021.25
2018-01-13T00:14:06.966Z,1021.26
2018-01-13T00:15:07.478Z,1021.23
2018-01-13T00:16:06.847Z,1021.24
2018-01-13T00:17:06.945Z,1021.25
2018-01-13T00:18:06.770Z,1021.25
2018-01-13T00:19:06.755Z,1021.24
2018-01-13T00:20:06.755Z,1021.22
2018-01-13T00:21:06.762Z,1021.18
2018-01-13T00:22:08.395Z,1021.17
2018-01-13T00:23:06.637Z,1021.18
2018-01-13T00:24:06.646Z,1021.18
2018-01-13T00:25:06.620Z,1021.19
2018-01-13T00:26:06.644Z,1021.17
2018-01-13T00:27:06.533Z,1021.17
2018-01-13T00:28:06.565Z,1021.17
2018-01-13T00:29:06.438Z,1021.18
2018-01-13T00:30:06.449Z,1021.12
2018-01-13T00:31:08.878Z,1021.10
2018-01-13T00:32:06.390Z,1021.14
2018-01-13T00:33:06.377Z,1021.14
2018-01-13T00:34:06.349Z,1021.11
2018-01-13T00:35:09.890Z,1021.13
2018-01-13T00:36:06.279Z,1021.14
2018-01-13T00:37:06.251Z,1021.14
2018-01-13T00:38:08.944Z,1021.17
2018-01-13T00:39:06.178Z,1021.15
2018-01-13T00:40:06.213Z,1021.10
2018-01-13T00:41:06.083Z,1021.12
2018-01-13T00:42:08.883Z,1021.12
2018-01-13T00:43:06.057Z,1021.12
2018-01-13T00:44:05.997Z,1021.08
2018-01-13T00:45:05.972Z,1021.11
2018-01-13T00:46:05.947Z,1021.09
2018-01-13T00:47:06.024Z,1021.15
2018-01-13T00:48:07.484Z,1021.07
2018-01-13T00:49:05.937Z,1021.07
2018-01-13T00:50:05.903Z,1021.07
2018-01-13T00:51:08.395Z,1021.08
2018-01-13T00:52:05.830Z,1021.05
2018-01-13T00:53:05.827Z,1021.07
2018-01-13T00:54:05.737Z,1021.03
2018-01-13T00:55:05.675Z,1021.05
2018-01-13T00:56:05.643Z,1021.04
2018-01-13T00:57:05.617Z,1020.99
2018-01-13T00:58:05.584Z,1020.99
2018-01-13T00:59:05.556Z,1021.00
2018-01-13T01:00:05.569Z,1021.03
2018-01-13T01:01:05.496Z,1021.02
2018-01-13T01:02:05.475Z,1021.03
2018-01-13T01:03:05.445Z,1020.98
2018-01-13T01:04:05.417Z,1020.99
2018-01-13T01:05:05.405Z,1021.00
2018-01-13T01:06:05.426Z,1020.97
2018-01-13T01:07:05.324Z,1020.98
2018-01-13T01:08:05.298Z,1020.99
2018-01-13T01:09:05.262Z,1020.93
2018-01-13T01:10:05.264Z,1020.98
2018-01-13T01:11:06.901Z,1020.93
2018-01-13T01:12:07.281Z,1020.94
2018-01-13T01:13:06.913Z,1020.94
2018-01-13T01:14:05.111Z,1020.91
2018-01-13T01:15:06.885Z,1020.94
2018-01-13T01:16:05.053Z,1020.94
2018-01-13T01:17:05.122Z,1020.94
2018-01-13T01:18:04.996Z,1020.93
2018-01-13T01:19:05.030Z,1020.92
2018-01-13T01:20:04.936Z,1020.91
2018-01-13T01:21:04.909Z,1020.88
2018-01-13T01:22:04.878Z,1020.94
2018-01-13T01:23:04.849Z,1020.92
2018-01-13T01:24:04.821Z,1020.90
2018-01-13T01:25:04.789Z,1020.93
2018-01-13T01:26:04.758Z,1020.91
2018-01-13T01:27:04.723Z,1020.92
2018-01-13T01:28:06.386Z,1020.92
2018-01-13T01:29:04.671Z,1020.91
2018-01-13T01:30:04.680Z,1020.92
2018-01-13T01:31:04.637Z,1020.92
2018-01-13T01:32:04.582Z,1020.91
2018-01-13T01:33:04.552Z,1020.90
2018-01-13T01:34:04.518Z,1020.86
2018-01-13T01:35:04.485Z,1020.88
2018-01-13T01:36:04.505Z,1020.86
2018-01-13T01:37:04.425Z,1020.90
2018-01-13T01:38:04.400Z,1020.94
2018-01-13T01:39:04.370Z,1020.91
2018-01-13T01:40:06.887Z,1020.90
2018-01-13T01:41:04.320Z,1020.91
2018-01-13T01:42:04.286Z,1020.89
2018-01-13T01:43:04.254Z,1020.91
2018-01-13T01:44:04.220Z,1020.94
2018-01-13T01:45:04.200Z,1020.92
2018-01-13T01:46:04.183Z,1020.83
2018-01-13T01:47:04.332Z,1020.89
2018-01-13T01:48:04.105Z,1020.89
2018-01-13T01:49:04.074Z,1020.89
2018-01-13T01:50:05.888Z,1020.91
2018-01-13T01:51:04.013Z,1020.88
2018-01-13T01:52:03.983Z,1020.85
2018-01-13T01:53:03.974Z,1020.87
2018-01-13T01:54:03.930Z,1020.86
2018-01-13T01:55:03.895Z,1020.81
2018-01-13T01:56:03.874Z,1020.85
2018-01-13T01:57:05.387Z,1020.81
2018-01-13T01:58:03.834Z,1020.82
2018-01-13T01:59:03.775Z,1020.80
2018-01-13T02:00:03.757Z,1020.78
2018-01-13T02:01:03.724Z,1020.79
2018-01-13T02:02:03.687Z,1020.76
2018-01-13T02:03:03.657Z,1020.77
2018-01-13T02:04:03.627Z,1020.78
2018-01-13T02:05:03.597Z,1020.77
2018-01-13T02:06:03.625Z,1020.77
2018-01-13T02:07:03.535Z,1020.77
2018-01-13T02:08:06.420Z,1020.78
2018-01-13T02:09:03.483Z,1020.78
2018-01-13T02:10:03.464Z,1020.76
2018-01-13T02:11:03.478Z,1020.78
2018-01-13T02:12:03.387Z,1020.73
2018-01-13T02:13:03.362Z,1020.76
2018-01-13T02:14:04.900Z,1020.73
2018-01-13T02:15:03.303Z,1020.74
2018-01-13T02:16:03.279Z,1020.75
2018-01-13T02:17:03.260Z,1020.74
2018-01-13T02:18:03.212Z,1020.74
2018-01-13T02:19:03.180Z,1020.71
2018-01-13T02:20:03.160Z,1020.74
2018-01-13T02:21:03.131Z,1020.73
2018-01-13T02:22:03.092Z,1020.74
2018-01-13T02:23:03.112Z,1020.74
2018-01-13T02:24:05.892Z,1020.74
2018-01-13T02:25:02.995Z,1020.75
2018-01-13T02:26:02.993Z,1020.70
2018-01-13T02:27:02.947Z,1020.74
2018-01-13T02:28:02.903Z,1020.70
2018-01-13T02:29:02.918Z,1020.70
2018-01-13T02:30:02.924Z,1020.67
2018-01-13T02:31:02.819Z,1020.70
2018-01-13T02:32:02.792Z,1020.74
2018-01-13T02:33:02.760Z,1020.71
2018-01-13T02:34:02.734Z,1020.71
2018-01-13T02:35:02.712Z,1020.70
2018-01-13T02:36:02.686Z,1020.67
2018-01-13T02:37:02.638Z,1020.69
2018-01-13T02:38:02.633Z,1020.67
2018-01-13T02:39:02.587Z,1020.68
2018-01-13T02:40:05.399Z,1020.68
2018-01-13T02:41:02.517Z,1020.67
2018-01-13T02:42:02.493Z,1020.62
2018-01-13T02:43:02.468Z,1020.63
2018-01-13T02:44:02.447Z,1020.63
2018-01-13T02:45:02.412Z,1020.55
2018-01-13T02:46:02.376Z,1020.59
2018-01-13T02:47:02.354Z,1020.56
2018-01-13T02:48:03.891Z,1020.54
2018-01-13T02:49:02.280Z,1020.50
2018-01-13T02:50:02.260Z,1020.52
2018-01-13T02:51:02.217Z,1020.53
2018-01-13T02:52:02.189Z,1020.55
2018-01-13T02:53:02.168Z,1020.50
2018-01-13T02:54:02.133Z,1020.52
2018-01-13T02:55:02.102Z,1020.57
2018-01-13T02:56:02.092Z,1020.52
2018-01-13T02:57:02.072Z,1020.52
2018-01-13T02:58:02.017Z,1020.53
2018-01-13T02:59:02.008Z,1020.52
2018-01-13T03:00:01.955Z,1020.50
2018-01-13T03:01:01.921Z,1020.51
2018-01-13T03:02:01.943Z,1020.54
2018-01-13T03:03:01.865Z,1020.45
2018-01-13T03:04:01.849Z,1020.46
2018-01-13T03:05:01.798Z,1020.43
2018-01-13T03:06:01.772Z,1020.42
2018-01-13T03:07:01.738Z,1020.42
2018-01-13T03:08:01.711Z,1020.40
2018-01-13T03:09:01.675Z,1020.39
2018-01-13T03:10:01.650Z,1020.42
2018-01-13T03:11:01.621Z,1020.43
2018-01-13T03:12:01.653Z,1020.36
2018-01-13T03:13:01.711Z,1020.39
2018-01-13T03:14:01.534Z,1020.35
2018-01-13T03:15:01.523Z,1020.36
2018-01-13T03:16:01.482Z,1020.32
2018-01-13T03:17:01.438Z,1020.34
2018-01-13T03:18:01.414Z,1020.33
2018-01-13T03:19:01.379Z,1020.32
2018-01-13T03:20:01.357Z,1020.33
2018-01-13T03:21:01.318Z,1020.34
2018-01-13T03:22:01.289Z,1020.32
2018-01-13T03:23:01.256Z,1020.33
2018-01-13T03:24:01.235Z,1020.31
2018-01-13T03:25:01.194Z,1020.28
2018-01-13T03:26:01.175Z,1020.27
2018-01-13T03:27:01.146Z,1020.26
2018-01-13T03:28:01.109Z,1020.30
2018-01-13T03:29:01.078Z,1020.32
2018-01-13T03:30:01.050Z,1020.29
2018-01-13T03:31:01.042Z,1020.30
2018-01-13T03:32:00.999Z,1020.28
2018-01-13T03:33:00.964Z,1020.28
2018-01-13T03:34:02.932Z,1020.26
2018-01-13T03:35:00.897Z,1020.33
2018-01-13T03:36:00.873Z,1020.29
2018-01-13T03:37:00.834Z,1020.30
2018-01-13T03:38:00.816Z,1020.30
2018-01-13T03:39:00.784Z,1020.30
2018-01-13T03:40:00.743Z,1020.32
2018-01-13T03:41:00.716Z,1020.28
2018-01-13T03:42:00.689Z,1020.30
2018-01-13T03:43:00.658Z,1020.30
2018-01-13T03:44:00.674Z,1020.27
2018-01-13T03:45:00.598Z,1020.29
2018-01-13T03:46:00.576Z,1020.29
2018-01-13T03:47:00.583Z,1020.28
2018-01-13T03:48:00.508Z,1020.26
2018-01-13T03:49:00.479Z,1020.27
2018-01-13T03:50:00.444Z,1020.28
2018-01-13T03:51:00.421Z,1020.27
2018-01-13T03:52:00.384Z,1020.28
2018-01-13T03:53:00.353Z,1020.28
2018-01-13T03:54:00.327Z,1020.27
2018-01-13T03:55:00.302Z,1020.29
2018-01-13T03:56:00.262Z,1020.29
2018-01-13T03:57:00.235Z,1020.27
2018-01-13T03:58:00.214Z,1020.27
2018-01-13T03:59:00.184Z,1020.26
2018-01-13T04:00:00.150Z,1020.23
2018-01-13T04:01:00.121Z,1020.19
2018-01-13T04:02:00.093Z,1020.20
2018-01-13T04:03:00.056Z,1020.24
2018-01-13T04:04:00.030Z,1020.24
2018-01-13T04:05:00.004Z,1020.22
2018-01-13T04:05:59.965Z,1020.20
2018-01-13T04:06:59.933Z,1020.21
2018-01-13T04:07:59.903Z,1020.19
2018-01-13T04:08:59.874Z,1020.17
2018-01-13T04:09:59.882Z,1020.18
2018-01-13T04:10:59.816Z,1020.17
2018-01-13T04:11:59.807Z,1020.13
2018-01-13T04:12:59.759Z,1020.10
2018-01-13T04:13:59.727Z,1020.10
2018-01-13T04:14:59.785Z,1020.11
2018-01-13T04:15:59.687Z,1020.12
2018-01-13T04:16:59.639Z,1020.06
2018-01-13T04:17:59.626Z,1020.08
2018-01-13T04:18:59.594Z,1020.06
2018-01-13T04:19:59.545Z,1020.00
2018-01-13T04:20:59.518Z,1020.01
2018-01-13T04:21:59.482Z,1020.00
2018-01-13T04:22:59.454Z,1020.02
2018-01-13T04:23:59.425Z,1019.99
2018-01-13T04:24:59.396Z,1020.02
2018-01-13T04:25:59.417Z,1019.98
2018-01-13T04:26:59.340Z,1019.96
2018-01-13T04:27:59.302Z,1019.98
2018-01-13T04:28:59.272Z,1019.97
2018-01-13T04:29:59.247Z,1019.99
2018-01-13T04:30:59.220Z,1020.00
2018-01-13T04:31:59.197Z,1020.02
2018-01-13T04:32:59.163Z,1019.97
2018-01-13T04:33:59.126Z,1020.03
2018-01-13T04:34:59.125Z,1020.00
2018-01-13T04:35:59.064Z,1020.00
2018-01-13T04:36:59.049Z,1020.03
2018-01-13T04:37:59.000Z,1019.99
2018-01-13T04:38:58.988Z,1019.98
2018-01-13T04:39:58.944Z,1020.05
2018-01-13T04:40:58.917Z,1020.02
2018-01-13T04:41:58.890Z,1020.02
2018-01-13T04:42:58.863Z,1020.01
2018-01-13T04:43:58.828Z,1020.01
2018-01-13T04:44:58.795Z,1020.02
2018-01-13T04:45:58.758Z,1020.01
2018-01-13T04:46:58.736Z,1020.00
2018-01-13T04:47:58.703Z,1019.99
2018-01-13T04:48:58.673Z,1020.02
2018-01-13T04:49:58.643Z,1020.03
2018-01-13T04:50:58.614Z,1020.04
2018-01-13T04:51:58.582Z,1020.00
2018-01-13T04:52:58.562Z,1020.02
2018-01-13T04:53:58.546Z,1020.01
2018-01-13T04:54:58.499Z,1020.01
2018-01-13T04:55:58.464Z,1020.01
2018-01-13T04:56:58.440Z,1019.95
2018-01-13T04:57:58.408Z,1019.99
2018-01-13T04:58:58.377Z,1019.99
2018-01-13T04:59:58.345Z,1019.95
2018-01-13T05:00:58.318Z,1019.96
2018-01-13T05:01:58.286Z,1019.98
2018-01-13T05:02:58.249Z,1020.03
2018-01-13T05:03:58.219Z,1019.98
2018-01-13T05:04:58.189Z,1020.00
2018-01-13T05:05:58.162Z,1020.04
2018-01-13T05:06:58.138Z,1019.99
2018-01-13T05:07:58.103Z,1020.02
2018-01-13T05:08:58.088Z,1020.04
2018-01-13T05:10:00.912Z,1020.04
2018-01-13T05:10:58.019Z,1020.04
2018-01-13T05:11:57.985Z,1020.02
2018-01-13T05:12:57.958Z,1020.06
2018-01-13T05:13:57.924Z,1020.04
2018-01-13T05:14:57.909Z,1020.09
2018-01-13T05:15:57.866Z,1020.10
2018-01-13T05:16:57.845Z,1020.07
2018-01-13T05:17:59.406Z,1020.09
2018-01-13T05:18:57.776Z,1020.07
2018-01-13T05:19:57.740Z,1020.07
2018-01-13T05:20:57.710Z,1020.06
2018-01-13T05:21:57.683Z,1020.06
2018-01-13T05:22:57.656Z,1020.03
2018-01-13T05:23:57.624Z,1020.03
2018-01-13T05:24:57.594Z,1020.06
2018-01-13T05:25:57.569Z,1020.01
2018-01-13T05:26:57.537Z,1020.04
2018-01-13T05:27:57.532Z,1020.01
2018-01-13T05:28:57.479Z,1019.95
2018-01-13T05:29:57.448Z,1020.03
2018-01-13T05:30:57.444Z,1019.99
2018-01-13T05:31:57.405Z,1019.96
2018-01-13T05:32:57.362Z,1019.97
2018-01-13T05:33:57.323Z,1019.96
2018-01-13T05:34:58.910Z,1019.95
2018-01-13T05:35:57.265Z,1020.00
2018-01-13T05:36:57.257Z,1019.98
2018-01-13T05:37:57.204Z,1019.98
2018-01-13T05:38:57.185Z,1019.98
2018-01-13T05:39:57.144Z,1019.96
2018-01-13T05:40:57.142Z,1019.91
2018-01-13T05:41:57.088Z,1019.89
2018-01-13T05:42:57.065Z,1019.89
2018-01-13T05:43:57.027Z,1019.87
2018-01-13T05:44:57.000Z,1019.89
2018-01-13T05:45:56.967Z,1019.88
2018-01-13T05:46:56.939Z,1019.86
2018-01-13T05:47:56.916Z,1019.82
2018-01-13T05:48:56.875Z,1019.88
2018-01-13T05:49:56.852Z,1019.85
2018-01-13T05:50:56.879Z,1019.84
2018-01-13T05:51:56.790Z,1019.84
2018-01-13T05:52:56.757Z,1019.85
2018-01-13T05:53:56.730Z,1019.78
2018-01-13T05:54:56.701Z,1019.83
2018-01-13T05:55:56.672Z,1019.80
2018-01-13T05:56:56.639Z,1019.82
2018-01-13T05:57:56.601Z,1019.81
2018-01-13T05:58:56.577Z,1019.82
2018-01-13T05:59:56.542Z,1019.84
2018-01-13T06:00:56.516Z,1019.86
2018-01-13T06:01:56.486Z,1019.84
2018-01-13T06:02:56.490Z,1019.85
2018-01-13T06:03:56.422Z,1019.86
2018-01-13T06:04:56.409Z,1019.82
2018-01-13T06:05:56.368Z,1019.80
2018-01-13T06:06:56.338Z,1019.81
2018-01-13T06:07:56.345Z,1019.85
2018-01-13T06:08:56.285Z,1019.85
2018-01-13T06:09:56.251Z,1019.82
2018-01-13T06:10:56.252Z,1019.81
2018-01-13T06:11:56.192Z,1019.83
2018-01-13T06:12:56.163Z,1019.83
2018-01-13T06:13:56.125Z,1019.80
2018-01-13T06:14:56.096Z,1019.83
2018-01-13T06:15:56.089Z,1019.82
2018-01-13T06:16:56.038Z,1019.79
2018-01-13T06:17:56.008Z,1019.85
2018-01-13T06:18:55.985Z,1019.80
2018-01-13T06:19:55.943Z,1019.75
2018-01-13T06:20:55.919Z,1019.78
2018-01-13T06:21:55.889Z,1019.76
2018-01-13T06:22:55.857Z,1019.78
2018-01-13T06:23:55.872Z,1019.83
2018-01-13T06:24:55.797Z,1019.78
2018-01-13T06:25:55.771Z,1019.79
2018-01-13T06:26:55.755Z,1019.77
2018-01-13T06:27:55.708Z,1019.77
2018-01-13T06:28:55.682Z,1019.74
2018-01-13T06:29:55.671Z,1019.74
2018-01-13T06:30:55.616Z,1019.74
2018-01-13T06:31:55.585Z,1019.75
2018-01-13T06:32:55.568Z,1019.70
2018-01-13T06:33:55.520Z,1019.70
2018-01-13T06:34:55.520Z,1019.71
2018-01-13T06:35:55.460Z,1019.70
2018-01-13T06:36:55.460Z,1019.71
2018-01-13T06:37:55.411Z,1019.71
2018-01-13T06:38:55.383Z,1019.69
2018-01-13T06:39:55.347Z,1019.72
2018-01-13T06:40:55.330Z,1019.67
2018-01-13T06:41:55.288Z,1019.71
2018-01-13T06:42:55.257Z,1019.70
2018-01-13T06:43:55.227Z,1019.66
2018-01-13T06:44:55.195Z,1019.69
2018-01-13T06:45:55.170Z,1019.74
2018-01-13T06:46:55.159Z,1019.71
2018-01-13T06:47:55.101Z,1019.70
2018-01-13T06:48:55.081Z,1019.71
2018-01-13T06:49:55.042Z,1019.71
2018-01-13T06:50:55.017Z,1019.71
2018-01-13T06:51:54.993Z,1019.80
2018-01-13T06:52:54.957Z,1019.74
2018-01-13T06:53:54.921Z,1019.72
2018-01-13T06:54:54.910Z,1019.74
2018-01-13T06:55:54.871Z,1019.74
2018-01-13T06:56:54.828Z,1019.76
2018-01-13T06:57:54.802Z,1019.72
2018-01-13T06:58:54.771Z,1019.72
2018-01-13T06:59:54.738Z,1019.71
2018-01-13T07:00:54.707Z,1019.74
2018-01-13T07:01:54.682Z,1019.72
2018-01-13T07:02:56.419Z,1019.70
2018-01-13T07:03:54.650Z,1019.72
2018-01-13T07:04:54.594Z,1019.73
2018-01-13T07:05:54.592Z,1019.71
2018-01-13T07:06:54.569Z,1019.68
2018-01-13T07:07:54.591Z,1019.68
2018-01-13T07:08:54.483Z,1019.71
2018-01-13T07:09:54.437Z,1019.70
2018-01-13T07:10:54.407Z,1019.70
2018-01-13T07:11:54.439Z,1019.74
2018-01-13T07:12:54.345Z,1019.70
2018-01-13T07:13:54.317Z,1019.70
2018-01-13T07:14:54.290Z,1019.71
2018-01-13T07:15:54.282Z,1019.68
2018-01-13T07:16:54.230Z,1019.69
2018-01-13T07:17:54.209Z,1019.70
2018-01-13T07:18:54.185Z,1019.70
2018-01-13T07:19:54.190Z,1019.70
2018-01-13T07:20:54.113Z,1019.75
2018-01-13T07:21:54.078Z,1019.73
2018-01-13T07:22:54.050Z,1019.74
2018-01-13T07:23:54.022Z,1019.78
2018-01-13T07:24:54.023Z,1019.80
2018-01-13T07:25:53.970Z,1019.78
2018-01-13T07:26:53.930Z,1019.79
2018-01-13T07:27:54.885Z,1019.80
2018-01-13T07:28:53.864Z,1019.78
2018-01-13T07:29:53.833Z,1019.78
2018-01-13T07:30:53.835Z,1019.75
2018-01-13T07:31:53.776Z,1019.77
2018-01-13T07:32:53.744Z,1019.79
2018-01-13T07:33:53.732Z,1019.80
2018-01-13T07:34:53.693Z,1019.78
2018-01-13T07:35:53.660Z,1019.83
2018-01-13T07:36:53.683Z,1019.84
2018-01-13T07:37:53.654Z,1019.80
2018-01-13T07:38:53.604Z,1019.83
2018-01-13T07:39:53.546Z,1019.81
2018-01-13T07:40:53.509Z,1019.84
2018-01-13T07:41:53.480Z,1019.85
2018-01-13T07:42:53.445Z,1019.83
2018-01-13T07:43:53.469Z,1019.86
2018-01-13T07:44:53.387Z,1019.83
2018-01-13T07:45:53.352Z,1019.84
2018-01-13T07:46:53.328Z,1019.85
2018-01-13T07:47:53.300Z,1019.81
2018-01-13T07:48:53.262Z,1019.83
2018-01-13T07:49:53.240Z,1019.80
2018-01-13T07:50:53.214Z,1019.80
2018-01-13T07:51:53.205Z,1019.84
2018-01-13T07:52:53.150Z,1019.79
2018-01-13T07:53:53.113Z,1019.80
2018-01-13T07:54:53.086Z,1019.89
2018-01-13T07:55:53.055Z,1019.93
2018-01-13T07:56:54.945Z,1019.86
2018-01-13T07:57:52.996Z,1019.91
2018-01-13T07:58:55.929Z,1019.90
2018-01-13T07:59:52.949Z,1019.95
2018-01-13T08:00:52.915Z,1019.94
2018-01-13T08:01:52.887Z,1020.01
2018-01-13T08:02:52.856Z,1019.98
2018-01-13T08:03:52.821Z,1020.02
2018-01-13T08:04:52.791Z,1019.98
2018-01-13T08:05:52.751Z,1020.01
2018-01-13T08:06:52.725Z,1020.01
2018-01-13T08:07:52.732Z,1019.98
2018-01-13T08:08:52.664Z,1020.03
2018-01-13T08:09:52.633Z,1020.01
2018-01-13T08:10:52.606Z,1019.99
2018-01-13T08:11:52.573Z,1020.00
2018-01-13T08:12:52.545Z,1019.99
2018-01-13T08:13:52.519Z,1019.97
2018-01-13T08:14:52.495Z,1020.01
2018-01-13T08:15:52.457Z,1020.03
2018-01-13T08:16:52.429Z,1020.02
2018-01-13T08:17:52.516Z,1020.05
2018-01-13T08:18:52.465Z,1020.05
2018-01-13T08:19:52.422Z,1020.06
2018-01-13T08:20:52.311Z,1020.07
2018-01-13T08:21:54.945Z,1020.06
2018-01-13T08:22:52.246Z,1020.06
2018-01-13T08:23:52.218Z,1020.09
2018-01-13T08:24:52.198Z,1020.07
2018-01-13T08:25:52.155Z,1020.08
2018-01-13T08:26:52.177Z,1020.05
2018-01-13T08:27:52.096Z,1020.08
2018-01-13T08:28:52.064Z,1020.11
2018-01-13T08:29:52.075Z,1020.09
2018-01-13T08:30:52.016Z,1020.12
2018-01-13T08:31:51.984Z,1020.09
2018-01-13T08:32:51.950Z,1020.07
2018-01-13T08:33:51.921Z,1020.09
2018-01-13T08:34:51.889Z,1020.13
2018-01-13T08:35:51.870Z,1020.11
2018-01-13T08:36:51.838Z,1020.10
2018-01-13T08:37:51.801Z,1020.10
2018-01-13T08:38:51.829Z,1020.12
2018-01-13T08:39:51.744Z,1020.10
2018-01-13T08:40:51.711Z,1020.17
2018-01-13T08:41:51.678Z,1020.12
2018-01-13T08:42:51.652Z,1020.10
2018-01-13T08:43:51.640Z,1020.13
2018-01-13T08:44:51.593Z,1020.12
2018-01-13T08:45:51.620Z,1020.09
2018-01-13T08:46:51.534Z,1020.12
2018-01-13T08:47:51.506Z,1020.13
2018-01-13T08:48:51.543Z,1020.11
2018-01-13T08:49:51.452Z,1020.11
2018-01-13T08:50:51.418Z,1020.14
2018-01-13T08:51:51.391Z,1020.16
2018-01-13T08:52:51.361Z,1020.16
2018-01-13T08:53:51.328Z,1020.14
2018-01-13T08:54:51.294Z,1020.17
2018-01-13T08:55:51.265Z,1020.19
2018-01-13T08:56:51.234Z,1020.19
2018-01-13T08:57:51.215Z,1020.19
2018-01-13T08:58:51.181Z,1020.22
2018-01-13T08:59:51.152Z,1020.21
2018-01-13T09:00:51.120Z,1020.26
2018-01-13T09:01:51.094Z,1020.26
2018-01-13T09:02:51.057Z,1020.26
2018-01-13T09:03:51.028Z,1020.25
2018-01-13T09:04:50.996Z,1020.24
2018-01-13T09:05:50.969Z,1020.25
2018-01-13T09:06:50.943Z,1020.26
2018-01-13T09:07:50.907Z,1020.28
2018-01-13T09:08:50.877Z,1020.28
2018-01-13T09:09:50.854Z,1020.24
2018-01-13T09:10:50.828Z,1020.25
2018-01-13T09:11:50.802Z,1020.28
2018-01-13T09:12:50.830Z,1020.28
2018-01-13T09:13:50.744Z,1020.28
2018-01-13T09:14:50.707Z,1020.28
2018-01-13T09:15:50.681Z,1020.32
2018-01-13T09:16:50.651Z,1020.31
2018-01-13T09:17:50.613Z,1020.26
2018-01-13T09:18:50.592Z,1020.24
2018-01-13T09:19:50.582Z,1020.28
2018-01-13T09:20:50.529Z,1020.25
2018-01-13T09:21:50.496Z,1020.27
2018-01-13T09:22:50.468Z,1020.20
2018-01-13T09:23:50.483Z,1020.22
2018-01-13T09:24:50.471Z,1020.25
2018-01-13T09:25:50.384Z,1020.27
2018-01-13T09:26:50.351Z,1020.26
2018-01-13T09:27:50.328Z,1020.28
2018-01-13T09:28:50.304Z,1020.30
2018-01-13T09:29:50.265Z,1020.32
2018-01-13T09:30:50.240Z,1020.31
2018-01-13T09:31:50.215Z,1020.32
2018-01-13T09:32:50.176Z,1020.29
2018-01-13T09:33:50.146Z,1020.31
2018-01-13T09:34:50.120Z,1020.32
2018-01-13T09:35:50.085Z,1020.33
2018-01-13T09:36:50.094Z,1020.35
2018-01-13T09:37:50.036Z,1020.32
2018-01-13T09:38:49.996Z,1020.34
2018-01-13T09:39:49.968Z,1020.31
2018-01-13T09:40:49.941Z,1020.34
2018-01-13T09:41:49.917Z,1020.37
2018-01-13T09:42:49.885Z,1020.39
2018-01-13T09:43:49.855Z,1020.43
2018-01-13T09:44:49.826Z,1020.43
2018-01-13T09:45:49.835Z,1020.44
2018-01-13T09:46:49.794Z,1020.46
2018-01-13T09:47:49.752Z,1020.44
2018-01-13T09:48:49.709Z,1020.43
2018-01-13T09:49:49.740Z,1020.45
2018-01-13T09:50:49.647Z,1020.43
2018-01-13T09:51:49.619Z,1020.43
2018-01-13T09:52:49.587Z,1020.45
2018-01-13T09:53:49.582Z,1020.43
2018-01-13T09:54:49.557Z,1020.48
2018-01-13T09:55:49.502Z,1020.45
2018-01-13T09:56:49.470Z,1020.47
2018-01-13T09:57:49.460Z,1020.48
2018-01-13T09:58:49.415Z,1020.48
2018-01-13T09:59:51.943Z,1020.48
2018-01-13T10:00:50.950Z,1020.47
2018-01-13T10:01:49.375Z,1020.49
2018-01-13T10:02:49.356Z,1020.47
2018-01-13T10:03:49.261Z,1020.48
2018-01-13T10:04:49.236Z,1020.47
2018-01-13T10:05:49.215Z,1020.48
2018-01-13T10:06:49.180Z,1020.48
2018-01-13T10:07:49.156Z,1020.48
2018-01-13T10:08:49.121Z,1020.46
2018-01-13T10:09:49.093Z,1020.55
2018-01-13T10:10:49.064Z,1020.53
2018-01-13T10:11:49.046Z,1020.54
2018-01-13T10:12:49.003Z,1020.51
2018-01-13T10:13:48.994Z,1020.49
2018-01-13T10:14:48.951Z,1020.51
2018-01-13T10:15:48.918Z,1020.46
2018-01-13T10:16:48.892Z,1020.50
2018-01-13T10:17:48.861Z,1020.48
2018-01-13T10:18:48.825Z,1020.53
2018-01-13T10:19:48.804Z,1020.48
2018-01-13T10:20:48.827Z,1020.51
2018-01-13T10:21:48.743Z,1020.49
2018-01-13T10:22:48.718Z,1020.46
2018-01-13T10:23:48.688Z,1020.49
2018-01-13T10:24:48.661Z,1020.50
2018-01-13T10:25:48.650Z,1020.46
2018-01-13T10:26:48.598Z,1020.47
2018-01-13T10:27:48.571Z,1020.44
2018-01-13T10:28:48.692Z,1020.45
2018-01-13T10:29:48.560Z,1020.40
2018-01-13T10:30:48.480Z,1020.45
2018-01-13T10:31:48.449Z,1020.42
2018-01-13T10:32:48.421Z,1020.40
2018-01-13T10:33:48.466Z,1020.35
2018-01-13T10:34:48.373Z,1020.35
2018-01-13T10:35:48.338Z,1020.37
2018-01-13T10:36:48.400Z,1020.38
2018-01-13T10:37:48.332Z,1020.38
2018-01-13T10:38:48.259Z,1020.39
2018-01-13T10:39:48.260Z,1020.38
2018-01-13T10:40:48.212Z,1020.38
2018-01-13T10:41:48.304Z,1020.34
2018-01-13T10:42:48.200Z,1020.38
2018-01-13T10:43:48.185Z,1020.40
2018-01-13T10:44:48.223Z,1020.39
2018-01-13T10:45:48.295Z,1020.37
2018-01-13T10:46:48.207Z,1020.40
2018-01-13T10:47:48.035Z,1020.36
2018-01-13T10:48:48.010Z,1020.46
2018-01-13T10:49:47.935Z,1020.42
2018-01-13T10:50:48.056Z,1020.36
2018-01-13T10:51:47.950Z,1020.38
2018-01-13T10:52:47.909Z,1020.39
2018-01-13T10:53:47.934Z,1020.38
2018-01-13T10:54:47.795Z,1020.33
2018-01-13T10:55:47.828Z,1020.36
2018-01-13T10:56:47.779Z,1020.35
2018-01-13T10:57:47.808Z,1020.30
2018-01-13T10:58:47.749Z,1020.32
2018-01-13T10:59:47.653Z,1020.36
2018-01-13T11:00:47.659Z,1020.30
2018-01-13T11:01:47.604Z,1020.34
2018-01-13T11:02:47.576Z,1020.28
2018-01-13T11:03:47.658Z,1020.28
2018-01-13T11:04:47.506Z,1020.23
2018-01-13T11:05:47.591Z,1020.17
2018-01-13T11:06:47.539Z,1020.27
2018-01-13T11:07:47.458Z,1020.20
2018-01-13T11:08:47.409Z,1020.25
2018-01-13T11:09:47.419Z,1020.24
2018-01-13T11:10:47.337Z,1020.21
2018-01-13T11:11:47.308Z,1020.21
2018-01-13T11:12:47.323Z,1020.26
2018-01-13T11:13:47.254Z,1020.16
2018-01-13T11:14:47.225Z,1020.19
2018-01-13T11:15:47.237Z,1020.24
2018-01-13T11:16:47.175Z,1020.19
2018-01-13T11:17:47.175Z,1020.13
2018-01-13T11:18:47.119Z,1020.15
2018-01-13T11:19:47.086Z,1020.15
2018-01-13T11:20:49.950Z,1020.17
2018-01-13T11:21:47.081Z,1020.15
2018-01-13T11:22:47.007Z,1020.11
2018-01-13T11:23:46.974Z,1020.10
2018-01-13T11:24:47.085Z,1020.06
2018-01-13T11:25:46.925Z,1020.02
2018-01-13T11:26:46.936Z,1020.02
2018-01-13T11:27:46.860Z,1020.03
2018-01-13T11:28:46.859Z,1020.11
2018-01-13T11:29:46.837Z,1020.01
2018-01-13T11:30:46.770Z,1020.05
2018-01-13T11:31:46.818Z,1019.98
2018-01-13T11:32:46.818Z,1020.03
2018-01-13T11:33:46.701Z,1020.09
2018-01-13T11:34:50.493Z,1020.06
2018-01-13T11:35:46.718Z,1020.06
2018-01-13T11:36:46.605Z,1020.07
2018-01-13T11:37:46.584Z,1020.06
2018-01-13T11:38:46.567Z,1020.02
2018-01-13T11:39:46.518Z,1020.09
2018-01-13T11:40:46.493Z,1020.07
2018-01-13T11:41:47.950Z,1020.02
2018-01-13T11:42:46.437Z,1020.00
2018-01-13T11:43:46.402Z,1020.03
2018-01-13T11:44:46.373Z,1020.03
2018-01-13T11:45:46.345Z,1019.97
2018-01-13T11:46:46.319Z,1019.99
2018-01-13T11:47:46.291Z,1020.01
2018-01-13T11:48:46.267Z,1020.02
2018-01-13T11:49:46.241Z,1020.04
2018-01-13T11:50:46.219Z,1020.00
2018-01-13T11:51:46.179Z,1019.97
2018-01-13T11:52:46.168Z,1019.96
2018-01-13T11:53:46.131Z,1019.96
2018-01-13T11:54:46.111Z,1019.98
2018-01-13T11:55:46.070Z,1019.94
2018-01-13T11:56:46.046Z,1019.92
2018-01-13T11:57:46.012Z,1019.89
2018-01-13T11:58:46.031Z,1019.91
2018-01-13T11:59:45.951Z,1019.93
2018-01-13T12:00:45.926Z,1019.92
2018-01-13T12:01:45.901Z,1019.87
2018-01-13T12:02:45.883Z,1019.85
2018-01-13T12:03:45.870Z,1019.77
2018-01-13T12:04:45.814Z,1019.83